createdAt,value
2018-07-14T00:01:40.442Z,6.30
2018-07-14T00:04:11.114Z,6.90
2018-07-14T00:06:41.625Z,6.70
2018-07-14T00:09:12.091Z,6.53
2018-07-14T00:11:43.025Z,5.73
2018-07-14T00:14:14.357Z,5.50
2018-07-14T00:16:44.981Z,5.70
2018-07-14T00:19:15.572Z,5.63
2018-07-14T00:21:45.701Z,5.37
2018-07-14T00:24:16.286Z,5.40
2018-07-14T00:26:46.790Z,5.67
2018-07-14T00:29:17.278Z,5.20
2018-07-14T00:31:48.196Z,5.83
2018-07-14T00:34:19.363Z,5.67
2018-07-14T00:36:49.944Z,5.00
2018-07-14T00:39:20.624Z,5.70
2018-07-14T00:41:51.429Z,5.57
2018-07-14T00:44:21.826Z,5.30
2018-07-14T00:47:12.309Z,5.70
2018-07-14T00:49:42.966Z,6.63
2018-07-14T00:52:13.491Z,6.80
2018-07-14T00:54:44.020Z,6.43
2018-07-14T00:57:14.522Z,7.00
2018-07-14T00:59:45.205Z,6.87
2018-07-14T01:02:16.628Z,6.73
2018-07-14T01:04:47.123Z,5.70
2018-07-14T01:07:17.585Z,6.90
2018-07-14T01:09:47.621Z,6.60
2018-07-14T01:12:17.976Z,5.53
2018-07-14T01:14:59.614Z,6.30
2018-07-14T01:17:30.766Z,6.20
2018-07-14T01:20:02.029Z,6.60
2018-07-14T01:22:32.760Z,6.73
2018-07-14T01:25:03.285Z,6.47
2018-07-14T01:27:33.260Z,6.10
2018-07-14T01:30:03.826Z,5.90
2018-07-14T01:32:34.407Z,5.67
2018-07-14T01:40:04.639Z,5.87
2018-07-14T01:42:35.287Z,6.67
2018-07-14T01:45:05.882Z,6.33
2018-07-14T01:47:56.099Z,6.83
2018-07-14T01:50:26.590Z,6.87
2018-07-14T01:52:56.603Z,7.20
2018-07-14T01:55:27.185Z,5.80
2018-07-14T01:57:57.168Z,5.57
2018-07-14T02:00:47.534Z,7.13
2018-07-14T02:03:18.081Z,7.20
2018-07-14T02:05:48.620Z,7.30
2018-07-14T02:08:19.216Z,7.00
2018-07-14T02:10:49.723Z,6.87
2018-07-14T02:13:20.094Z,7.17
2018-07-14T02:15:51.450Z,7.27
2018-07-14T02:18:22.283Z,7.33
2018-07-14T02:20:52.778Z,7.20
2018-07-14T02:23:23.292Z,7.03
2018-07-14T02:25:53.815Z,7.03
2018-07-14T02:28:43.702Z,7.37
2018-07-14T02:31:14.244Z,7.13
2018-07-14T02:33:44.734Z,7.47
2018-07-14T02:36:15.199Z,7.00
2018-07-14T02:38:45.791Z,7.63
2018-07-14T02:41:16.276Z,7.13
2018-07-14T02:43:47.076Z,7.53
2018-07-14T02:46:18.374Z,7.97
2018-07-14T02:48:48.800Z,7.90
2018-07-14T02:51:19.316Z,8.20
2018-07-14T02:53:49.847Z,7.83
2018-07-14T02:56:20.345Z,7.87
2018-07-14T02:58:51.052Z,7.20
2018-07-14T03:01:21.616Z,7.47
2018-07-14T03:03:52.566Z,7.40
2018-07-14T03:06:24.509Z,7.47
2018-07-14T03:08:54.963Z,7.47
2018-07-14T03:11:25.628Z,7.53
2018-07-14T03:13:56.216Z,7.03
2018-07-14T03:16:26.641Z,7.40
2018-07-14T03:19:17.218Z,7.17
2018-07-14T03:21:47.651Z,6.63
2018-07-14T03:24:18.075Z,6.90
2018-07-14T03:26:48.684Z,7.03
2018-07-14T03:29:19.504Z,7.50
2018-07-14T03:31:50.310Z,7.70
2018-07-14T03:34:21.763Z,7.57
2018-07-14T03:36:52.241Z,7.90
2018-07-14T03:39:22.235Z,7.73
2018-07-14T03:41:52.973Z,8.00
2018-07-14T03:44:23.819Z,7.63
2018-07-14T03:46:55.127Z,7.60
2018-07-14T03:49:25.674Z,8.43
2018-07-14T03:52:15.922Z,8.23
2018-07-14T03:54:47.669Z,8.80
2018-07-14T03:57:18.545Z,8.17
2018-07-14T03:59:49.029Z,8.60
2018-07-14T04:02:19.577Z,8.57
2018-07-14T04:04:50.081Z,8.57
2018-07-14T04:07:20.616Z,8.37
2018-07-14T04:09:50.547Z,9.00
2018-07-14T04:12:21.204Z,8.00
2018-07-14T04:14:52.522Z,8.67
2018-07-14T04:17:23.318Z,8.20
2018-07-14T04:19:53.780Z,8.37
2018-07-14T04:22:24.521Z,7.83
2018-07-14T04:24:55.088Z,7.67
2018-07-14T04:27:25.671Z,8.43
2018-07-14T04:29:56.169Z,8.27
2018-07-14T04:37:26.221Z,8.77
2018-07-14T04:39:56.804Z,8.30
2018-07-14T04:42:27.477Z,8.40
2018-07-14T04:45:18.232Z,7.90
2018-07-14T04:47:48.910Z,7.07
2018-07-14T04:50:19.489Z,7.50
2018-07-14T04:52:50.084Z,8.30
2018-07-14T04:55:20.582Z,7.47
2018-07-14T04:57:51.121Z,7.77
2018-07-14T05:00:21.887Z,8.03
2018-07-14T05:07:51.960Z,8.73
2018-07-14T05:10:22.562Z,7.73
2018-07-14T05:12:53.083Z,7.70
2018-07-14T05:15:23.716Z,7.80
2018-07-14T05:17:54.445Z,8.00
2018-07-14T05:20:25.126Z,7.70
2018-07-14T05:27:55.192Z,7.87
2018-07-14T05:30:25.835Z,9.63
2018-07-14T05:33:16.750Z,8.57
2018-07-14T05:35:48.455Z,8.90
2018-07-14T05:38:19.143Z,8.00
2018-07-14T05:40:49.593Z,7.63
2018-07-14T05:43:20.078Z,7.60
2018-07-14T05:45:50.641Z,7.57
2018-07-14T05:48:20.989Z,7.30
2018-07-14T05:50:51.826Z,8.27
2018-07-14T05:53:22.720Z,7.70
2018-07-14T05:55:53.990Z,7.10
2018-07-14T05:58:24.681Z,7.03
2018-07-14T06:00:55.767Z,6.70
2018-07-14T06:03:26.619Z,7.60
2018-07-14T06:05:57.271Z,7.20
2018-07-14T06:08:27.770Z,7.37
2018-07-14T06:10:59.565Z,7.60
2018-07-14T06:13:30.907Z,6.87
2018-07-14T06:21:01.236Z,6.97
2018-07-14T06:23:31.234Z,6.30
2018-07-14T06:26:01.863Z,6.50
2018-07-14T06:28:32.468Z,6.37
2018-07-14T06:31:22.977Z,7.10
2018-07-14T06:33:53.928Z,6.20
2018-07-14T06:36:24.699Z,6.23
2018-07-14T06:38:55.232Z,5.97
2018-07-14T06:41:26.083Z,5.10
2018-07-14T06:44:07.124Z,5.90
2018-07-14T06:46:37.794Z,5.47
2018-07-14T06:49:08.674Z,5.70
2018-07-14T06:51:39.413Z,5.13
2018-07-14T06:54:10.370Z,5.43
2018-07-14T06:56:41.404Z,5.20
2018-07-14T06:59:32.359Z,5.00
2018-07-14T07:02:02.496Z,5.70
2018-07-14T07:04:34.618Z,7.80
2018-07-14T07:07:06.866Z,9.27
2018-07-14T07:09:37.546Z,10.43
2018-07-14T07:12:08.379Z,9.43
2018-07-14T07:19:38.841Z,8.70
2018-07-14T07:22:09.715Z,6.60
2018-07-14T07:24:41.579Z,6.13
2018-07-14T07:27:14.198Z,5.33
2018-07-14T07:29:44.891Z,4.93
2018-07-14T07:32:15.576Z,5.00
2018-07-14T07:35:11.132Z,5.03
2018-07-14T07:37:44.758Z,5.00
2018-07-14T07:40:15.410Z,4.83
2018-07-14T07:42:45.665Z,4.53
2018-07-14T07:45:16.956Z,4.40
2018-07-14T07:47:48.373Z,4.17
2018-07-14T07:50:21.188Z,4.90
2018-07-14T07:52:51.931Z,4.30
2018-07-14T07:55:22.091Z,5.17
2018-07-14T07:57:52.874Z,4.30
2018-07-14T08:00:23.657Z,4.20
2018-07-14T08:02:54.744Z,3.93
2018-07-14T08:05:25.401Z,4.13
2018-07-14T08:07:56.871Z,4.30
2018-07-14T08:10:28.456Z,4.63
2018-07-14T08:13:00.035Z,3.97
2018-07-14T08:15:31.642Z,3.83
2018-07-14T08:18:02.647Z,3.90
2018-07-14T08:20:34.005Z,3.63
2018-07-14T08:23:04.487Z,3.60
2018-07-14T08:25:35.480Z,3.93
2018-07-14T08:28:08.400Z,4.17
2018-07-14T08:30:41.209Z,4.40
2018-07-14T08:33:12.645Z,4.57
2018-07-14T08:35:45.595Z,4.37
2018-07-14T08:38:17.151Z,4.20
2018-07-14T08:40:57.960Z,3.43
2018-07-14T08:43:28.759Z,3.50
2018-07-14T08:45:59.734Z,3.93
2018-07-14T08:48:50.940Z,5.60
2018-07-14T08:51:21.855Z,3.35
2018-07-14T08:53:54.263Z,9.65
2018-07-14T08:56:25.006Z,6.67
2018-07-14T08:58:55.795Z,5.67
2018-07-14T09:01:26.808Z,4.12
2018-07-14T09:03:58.124Z,4.10
2018-07-14T09:06:30.014Z,4.20
2018-07-14T09:09:00.813Z,4.25
2018-07-14T09:11:33.232Z,3.98
2018-07-14T09:14:04.229Z,3.60
2018-07-14T09:16:34.970Z,3.37
2018-07-14T09:19:05.792Z,3.80
2018-07-14T09:21:37.498Z,3.75
2018-07-14T09:24:09.621Z,3.77
2018-07-14T09:26:40.236Z,3.58
2018-07-14T09:29:11.069Z,3.87
2018-07-14T09:31:41.762Z,3.60
2018-07-14T09:34:12.597Z,3.22
2018-07-14T09:36:42.640Z,3.10
2018-07-14T09:39:13.295Z,3.10
2018-07-14T09:41:43.700Z,3.65
2018-07-14T09:44:15.209Z,3.50
2018-07-14T09:46:46.027Z,3.50
2018-07-14T09:49:17.068Z,3.50
2018-07-14T09:51:47.913Z,3.30
2018-07-14T09:54:18.819Z,4.03
2018-07-14T09:56:49.449Z,3.40
2018-07-14T10:04:20.256Z,3.75
2018-07-14T10:06:51.400Z,3.30
2018-07-14T10:09:23.646Z,3.85
2018-07-14T10:11:55.073Z,3.92
2018-07-14T10:14:25.686Z,3.70
2018-07-14T10:16:56.704Z,3.55
2018-07-14T10:19:28.991Z,3.58
2018-07-14T10:22:00.935Z,3.30
2018-07-14T10:24:34.160Z,4.00
2018-07-14T10:27:05.865Z,3.35
2018-07-14T10:29:36.924Z,3.47
2018-07-14T10:32:07.982Z,3.80
2018-07-14T10:34:40.239Z,6.42
2018-07-14T10:37:12.055Z,3.35
2018-07-14T10:39:44.813Z,3.65
2018-07-14T10:42:16.525Z,3.58
2018-07-14T10:44:47.324Z,3.70
2018-07-14T10:47:18.931Z,3.47
2018-07-14T10:49:50.940Z,4.55
2018-07-14T10:52:57.109Z,3.27
2018-07-14T10:55:28.107Z,3.70
2018-07-14T10:57:59.754Z,3.47
2018-07-14T11:00:30.443Z,3.60
2018-07-14T11:03:01.288Z,3.47
2018-07-14T11:05:31.874Z,3.77
2018-07-14T11:08:03.044Z,3.70
2018-07-14T11:10:36.182Z,5.37
2018-07-14T11:13:08.146Z,4.45
2018-07-14T11:20:39.210Z,3.80
2018-07-14T11:23:10.264Z,3.65
2018-07-14T11:25:41.315Z,4.25
2018-07-14T11:28:19.226Z,4.25
2018-07-14T11:30:51.363Z,3.62
2018-07-14T11:33:32.974Z,3.55
2018-07-14T11:36:03.598Z,4.00
2018-07-14T11:38:36.904Z,3.58
2018-07-14T11:48:54.999Z,3.90
2018-07-14T11:51:26.317Z,3.80
2018-07-14T11:53:56.947Z,3.98
2018-07-14T11:56:27.761Z,4.35
2018-07-14T11:58:59.502Z,3.75
2018-07-14T12:01:30.366Z,3.80
2018-07-14T12:09:00.879Z,3.80
2018-07-14T12:11:31.496Z,3.72
2018-07-14T12:14:02.460Z,3.90
2018-07-14T12:16:33.247Z,4.17
2018-07-14T12:19:04.502Z,4.17
2018-07-14T12:21:35.259Z,4.05
2018-07-14T12:24:07.593Z,4.45
2018-07-14T12:26:40.754Z,4.58
2018-07-14T12:29:13.908Z,4.50
2018-07-14T12:31:45.326Z,4.30
2018-07-14T12:34:16.379Z,4.20
2018-07-14T12:36:47.279Z,4.00
2018-07-14T12:39:18.682Z,4.75
2018-07-14T12:41:54.513Z,4.28
2018-07-14T12:44:25.248Z,3.80
2018-07-14T12:46:56.269Z,4.33
2018-07-14T12:49:28.530Z,4.00
2018-07-14T12:51:59.354Z,4.45
2018-07-14T12:54:30.083Z,3.87
2018-07-14T12:57:01.403Z,3.90
2018-07-14T12:59:33.607Z,4.03
2018-07-14T13:02:06.651Z,3.98
2018-07-14T13:04:38.273Z,3.83
2018-07-14T13:07:10.301Z,3.62
2018-07-14T13:09:41.876Z,4.22
2018-07-14T13:12:12.814Z,4.03
2018-07-14T13:14:44.401Z,3.60
2018-07-14T13:17:16.047Z,3.65
2018-07-14T13:19:47.006Z,3.70
2018-07-14T13:22:17.658Z,3.90
2018-07-14T13:24:48.174Z,4.20
2018-07-14T13:27:18.890Z,4.03
2018-07-14T13:29:49.677Z,3.60
2018-07-14T13:32:20.354Z,4.00
2018-07-14T13:34:51.849Z,3.83
2018-07-14T13:37:24.016Z,3.50
2018-07-14T13:39:54.077Z,3.70
2018-07-14T13:42:24.842Z,3.57
2018-07-14T13:44:56.028Z,3.57
2018-07-14T13:47:27.392Z,3.53
2018-07-14T13:49:58.176Z,3.57
2018-07-14T13:52:29.788Z,3.73
2018-07-14T13:55:02.193Z,3.30
2018-07-14T13:57:33.366Z,3.67
2018-07-14T14:00:04.311Z,3.60
2018-07-14T14:02:39.620Z,4.10
2018-07-14T14:05:10.345Z,3.20
2018-07-14T14:07:41.380Z,3.57
2018-07-14T14:10:12.932Z,4.10
2018-07-14T14:12:43.808Z,3.97
2018-07-14T14:15:15.595Z,3.80
2018-07-14T14:17:46.246Z,3.80
2018-07-14T14:20:18.582Z,3.37
2018-07-14T14:22:49.617Z,3.37
2018-07-14T14:25:20.446Z,3.65
2018-07-14T14:27:52.419Z,4.05
2018-07-14T14:30:23.582Z,3.70
2018-07-14T14:32:54.948Z,3.33
2018-07-14T14:35:25.702Z,3.50
2018-07-14T14:37:56.639Z,3.40
2018-07-14T14:40:27.547Z,3.42
2018-07-14T14:42:58.804Z,3.40
2018-07-14T14:45:30.537Z,3.62
2018-07-14T14:48:01.896Z,3.90
2018-07-14T14:50:31.864Z,3.75
2018-07-14T14:53:03.323Z,3.37
2018-07-14T14:55:35.283Z,3.43
2018-07-14T14:58:05.726Z,3.60
2018-07-14T15:00:36.812Z,3.33
2018-07-14T15:03:07.952Z,3.57
2018-07-14T15:05:39.392Z,3.30
2018-07-14T15:08:10.562Z,3.40
2018-07-14T15:10:41.995Z,3.23
2018-07-14T15:13:13.419Z,3.80
2018-07-14T15:15:43.468Z,3.50
2018-07-14T15:18:15.305Z,3.67
2018-07-14T15:20:46.417Z,3.90
2018-07-14T15:23:17.969Z,3.57
2018-07-14T15:25:48.057Z,3.10
2018-07-14T15:28:19.282Z,3.50
2018-07-14T15:30:50.453Z,3.80
2018-07-14T15:33:22.895Z,3.90
2018-07-14T15:35:53.742Z,3.40
2018-07-14T15:38:24.840Z,3.20
2018-07-14T15:40:56.774Z,3.50
2018-07-14T15:43:29.157Z,3.43
2018-07-14T15:46:00.634Z,3.50
2018-07-14T15:48:31.337Z,3.43
2018-07-14T15:51:02.466Z,3.50
2018-07-14T15:53:33.522Z,3.97
2018-07-14T15:56:05.270Z,3.80
2018-07-14T15:58:37.567Z,3.43
2018-07-14T16:01:08.584Z,3.10
2018-07-14T16:03:38.856Z,5.83
2018-07-14T16:06:10.379Z,4.20
2018-07-14T16:08:41.098Z,3.80
2018-07-14T16:11:11.907Z,3.67
2018-07-14T16:13:42.968Z,3.50
2018-07-14T16:16:13.757Z,3.80
2018-07-14T16:18:45.153Z,3.70
2018-07-14T16:21:16.182Z,4.20
2018-07-14T16:23:47.060Z,3.80
2018-07-14T16:26:17.642Z,3.90
2018-07-14T16:28:48.541Z,3.87
2018-07-14T16:31:19.349Z,3.97
2018-07-14T16:33:50.165Z,3.90
2018-07-14T16:36:22.510Z,3.80
2018-07-14T16:38:54.819Z,4.00
2018-07-14T16:41:25.360Z,3.80
2018-07-14T16:43:56.521Z,3.80
2018-07-14T16:46:28.547Z,3.80
2018-07-14T16:48:59.278Z,3.97
2018-07-14T16:51:30.004Z,3.60
2018-07-14T16:54:02.298Z,3.87
2018-07-14T16:56:33.470Z,3.87
2018-07-14T16:59:04.134Z,3.50
2018-07-14T17:01:34.921Z,3.83
2018-07-14T17:04:05.896Z,3.60
2018-07-14T17:06:36.686Z,3.60
2018-07-14T17:09:08.753Z,4.00
2018-07-14T17:11:39.386Z,4.10
2018-07-14T17:14:10.820Z,3.87
2018-07-14T17:16:41.411Z,4.07
2018-07-14T17:19:12.266Z,3.50
2018-07-14T17:21:42.961Z,3.57
2018-07-14T17:24:14.031Z,3.60
2018-07-14T17:26:44.490Z,3.70
2018-07-14T17:29:15.324Z,4.00
2018-07-14T17:31:46.968Z,3.80
2018-07-14T17:34:17.230Z,3.60
2018-07-14T17:36:47.891Z,3.53
2018-07-14T17:39:19.158Z,3.60
2018-07-14T17:41:50.581Z,4.00
2018-07-14T17:44:21.305Z,3.63
2018-07-14T17:46:52.177Z,3.43
2018-07-14T17:49:23.507Z,3.87
2018-07-14T17:51:55.210Z,3.70
2018-07-14T17:54:26.489Z,4.80
2018-07-14T17:56:57.141Z,4.33
2018-07-14T17:59:27.575Z,4.00
2018-07-14T18:01:58.202Z,4.13
2018-07-14T18:04:41.579Z,3.43
2018-07-14T18:07:13.072Z,5.93
2018-07-14T18:09:43.693Z,4.20
2018-07-14T18:12:14.663Z,4.43
2018-07-14T18:14:48.409Z,3.87
2018-07-14T18:17:19.113Z,3.67
2018-07-14T18:19:50.969Z,3.70
2018-07-14T18:22:22.681Z,4.13
2018-07-14T18:24:53.370Z,4.20
2018-07-14T18:27:23.953Z,3.30
2018-07-14T18:29:54.636Z,3.63
2018-07-14T18:32:25.860Z,3.50
2018-07-14T18:34:56.662Z,3.90
2018-07-14T18:37:28.126Z,3.50
2018-07-14T18:39:59.733Z,3.50
2018-07-14T18:42:31.184Z,3.57
2018-07-14T18:45:01.906Z,4.20
2018-07-14T18:47:32.966Z,3.70
2018-07-14T18:50:03.663Z,3.80
2018-07-14T18:52:34.229Z,3.93
2018-07-14T18:55:04.896Z,4.13
2018-07-14T18:57:37.222Z,4.10
2018-07-14T19:00:13.878Z,3.40
2018-07-14T19:02:44.609Z,3.50
2018-07-14T19:05:16.867Z,4.10
2018-07-14T19:07:48.556Z,3.70
2018-07-14T19:10:20.013Z,3.40
2018-07-14T19:12:51.948Z,4.07
2018-07-14T19:15:23.047Z,4.13
2018-07-14T19:17:54.326Z,3.80
2018-07-14T19:20:25.181Z,5.03
2018-07-14T19:22:55.596Z,4.17
2018-07-14T19:25:26.602Z,4.17
2018-07-14T19:27:57.689Z,3.80
2018-07-14T19:30:28.540Z,4.00
2018-07-14T19:33:00.136Z,4.30
2018-07-14T19:35:31.000Z,4.20
2018-07-14T19:38:01.674Z,4.10
2018-07-14T19:40:33.500Z,4.50
2018-07-14T19:43:04.738Z,4.30
2018-07-14T19:45:35.983Z,4.17
2018-07-14T19:48:06.957Z,4.03
2018-07-14T19:50:41.709Z,4.00
2018-07-14T19:53:12.658Z,3.63
2018-07-14T19:55:43.503Z,3.80
2018-07-14T19:58:15.707Z,3.67
2018-07-14T20:00:46.740Z,3.53
2018-07-14T20:03:17.559Z,3.50
2018-07-14T20:05:50.168Z,3.87
2018-07-14T20:08:22.436Z,3.80
2018-07-14T20:10:55.970Z,4.00
2018-07-14T20:13:27.645Z,3.43
2018-07-14T20:15:58.708Z,3.70
2018-07-14T20:18:31.063Z,3.93
2018-07-14T20:21:03.291Z,4.10
2018-07-14T20:23:35.601Z,3.63
2018-07-14T20:26:06.592Z,3.63
2018-07-14T20:28:38.159Z,3.90
2018-07-14T20:31:12.130Z,3.90
2018-07-14T20:33:43.213Z,4.10
2018-07-14T20:36:13.787Z,3.77
2018-07-14T20:38:44.868Z,4.07
2018-07-14T20:41:20.927Z,4.27
2018-07-14T20:43:51.960Z,4.40
2018-07-14T20:46:25.902Z,4.00
2018-07-14T20:49:02.845Z,4.30
2018-07-14T20:51:34.985Z,4.10
2018-07-14T20:54:31.281Z,3.90
2018-07-14T20:57:17.110Z,4.00
2018-07-14T20:59:56.684Z,3.50
2018-07-14T21:02:31.033Z,3.40
2018-07-14T21:05:02.086Z,3.80
2018-07-14T21:07:33.797Z,3.80
2018-07-14T21:10:09.051Z,3.80
2018-07-14T21:12:39.914Z,3.77
2018-07-14T21:15:11.116Z,3.70
2018-07-14T21:17:44.240Z,3.77
2018-07-14T21:20:14.887Z,3.73
2018-07-14T21:22:44.259Z,3.83
2018-07-14T21:25:16.230Z,3.70
2018-07-14T21:27:53.306Z,4.03
2018-07-14T21:30:24.332Z,4.20
2018-07-14T21:32:55.427Z,3.77
2018-07-14T21:35:26.185Z,3.70
2018-07-14T21:37:57.017Z,4.37
2018-07-14T21:40:27.751Z,4.10
2018-07-14T21:42:58.803Z,4.30
2018-07-14T21:45:31.280Z,4.07
2018-07-14T21:48:02.034Z,4.07
2018-07-14T21:50:32.688Z,4.70
2018-07-14T21:53:04.371Z,3.87
2018-07-14T21:55:35.262Z,4.60
2018-07-14T21:58:06.038Z,4.80
2018-07-14T22:00:42.443Z,4.60
2018-07-14T22:03:14.160Z,4.13
2018-07-14T22:05:45.238Z,4.70
2018-07-14T22:08:16.403Z,3.73
2018-07-14T22:10:47.520Z,4.00
2018-07-14T22:13:18.384Z,4.00
2018-07-14T22:15:49.246Z,4.23
2018-07-14T22:18:20.288Z,3.83
2018-07-14T22:20:51.916Z,4.00
2018-07-14T22:23:22.651Z,3.50
2018-07-14T22:25:53.526Z,3.80
2018-07-14T22:28:24.211Z,4.00
2018-07-14T22:30:54.963Z,3.60
2018-07-14T22:33:26.298Z,3.87
2018-07-14T22:35:57.208Z,3.83
2018-07-14T22:38:30.592Z,4.27
2018-07-14T22:41:02.159Z,4.00
2018-07-14T22:43:33.474Z,5.13
2018-07-14T22:46:04.144Z,4.90
2018-07-14T22:48:34.961Z,4.87
2018-07-14T22:51:06.079Z,4.57
2018-07-14T22:53:36.804Z,4.80
2018-07-14T22:56:09.198Z,4.80
2018-07-14T22:58:39.957Z,4.50
2018-07-14T23:01:10.787Z,5.30
2018-07-14T23:03:41.838Z,4.73
2018-07-14T23:06:12.957Z,5.43
2018-07-14T23:08:43.556Z,4.40
2018-07-14T23:11:15.335Z,5.10
2018-07-14T23:13:46.707Z,4.80
2018-07-14T23:16:17.940Z,4.67
2018-07-14T23:18:48.763Z,5.20
2018-07-14T23:21:19.772Z,4.67
2018-07-14T23:23:50.629Z,5.13
2018-07-14T23:26:22.163Z,5.33
2018-07-14T23:28:52.249Z,5.20
2018-07-14T23:31:23.893Z,4.90
2018-07-14T23:33:55.296Z,4.97
2018-07-14T23:36:26.074Z,4.53
2018-07-14T23:38:56.559Z,4.80
2018-07-14T23:41:27.063Z,4.83
2018-07-14T23:43:57.650Z,4.57
2018-07-14T23:46:27.635Z,4.30
2018-07-14T23:48:58.185Z,4.17
2018-07-14T23:51:28.802Z,4.40
2018-07-14T23:54:00.485Z,5.00
2018-07-14T23:56:31.027Z,4.40
2018-07-14T23:59:01.673Z,4.23
